createdAt,value
2019-05-02T00:00:18.074Z,8.16
2019-05-02T00:02:51.870Z,8.15
2019-05-02T00:05:27.322Z,8.12
2019-05-02T00:07:58.455Z,8.08
2019-05-02T00:10:30.988Z,8.02
2019-05-02T00:13:03.267Z,7.98
2019-05-02T00:15:38.251Z,7.95
2019-05-02T00:18:10.468Z,7.94
2019-05-02T00:20:42.695Z,7.90
2019-05-02T00:23:14.919Z,7.87
2019-05-02T00:25:52.320Z,7.86
2019-05-02T00:28:21.159Z,7.82
2019-05-02T00:30:53.559Z,7.78
2019-05-02T00:33:29.241Z,7.79
2019-05-02T00:36:00.053Z,7.74
2019-05-02T00:38:33.354Z,7.70
2019-05-02T00:41:06.365Z,7.69
2019-05-02T00:43:38.628Z,7.66
2019-05-02T00:46:10.856Z,7.62
2019-05-02T00:48:43.193Z,7.59
2019-05-02T00:51:15.448Z,7.57
2019-05-02T00:53:48.354Z,7.57
2019-05-02T00:56:22.106Z,7.55
2019-05-02T00:58:54.509Z,7.53
2019-05-02T01:01:29.510Z,7.50
2019-05-02T01:04:00.849Z,7.46
2019-05-02T01:06:35.134Z,7.42
2019-05-02T01:09:11.010Z,7.39
2019-05-02T01:11:41.836Z,7.37
2019-05-02T01:14:14.141Z,7.36
2019-05-02T01:16:49.523Z,7.33
2019-05-02T01:19:21.749Z,7.31
2019-05-02T01:21:55.098Z,7.30
2019-05-02T01:24:27.369Z,7.27
2019-05-02T01:27:04.585Z,7.23
2019-05-02T01:29:35.641Z,7.22
2019-05-02T01:32:07.894Z,7.19
2019-05-02T01:34:40.237Z,7.17
2019-05-02T01:37:20.367Z,7.18
2019-05-02T01:39:46.436Z,7.15
2019-05-02T01:42:18.700Z,7.15
2019-05-02T01:44:50.991Z,7.13
2019-05-02T01:47:23.248Z,7.12
2019-05-02T01:49:57.171Z,7.11
2019-05-02T01:52:29.594Z,7.10
2019-05-02T01:55:01.879Z,7.08
2019-05-02T01:57:34.102Z,7.07
2019-05-02T02:00:09.544Z,7.06
2019-05-02T02:02:41.298Z,7.05
2019-05-02T02:05:13.626Z,7.02
2019-05-02T02:07:45.863Z,7.02
2019-05-02T02:10:19.758Z,7.04
2019-05-02T02:13:03.573Z,7.02
2019-05-02T02:15:29.019Z,7.00
2019-05-02T02:18:02.184Z,6.99
2019-05-02T02:20:34.452Z,6.97
2019-05-02T02:23:10.235Z,6.97
2019-05-02T02:25:40.739Z,6.96
2019-05-02T02:28:13.006Z,6.96
2019-05-02T02:30:45.265Z,6.94
2019-05-02T02:33:17.667Z,6.92
2019-05-02T02:35:51.987Z,6.91
2019-05-02T02:38:26.802Z,6.91
2019-05-02T02:40:58.335Z,6.92
2019-05-02T02:43:34.604Z,6.93
2019-05-02T02:46:04.610Z,6.92
2019-05-02T02:48:40.552Z,6.93
2019-05-02T02:51:22.038Z,6.93
2019-05-02T02:53:45.028Z,6.90
2019-05-02T02:56:17.334Z,6.92
2019-05-02T02:58:49.607Z,6.92
2019-05-02T03:01:28.699Z,6.92
2019-05-02T03:04:02.004Z,6.93
2019-05-02T03:06:29.764Z,6.94
2019-05-02T03:09:02.014Z,6.93
2019-05-02T03:11:35.860Z,6.90
2019-05-02T03:14:09.726Z,6.90
2019-05-02T03:16:47.478Z,6.91
2019-05-02T03:19:21.491Z,6.90
2019-05-02T03:21:54.424Z,6.89
2019-05-02T03:24:23.945Z,6.89
2019-05-02T03:26:58.486Z,6.90
2019-05-02T03:29:41.496Z,6.89
2019-05-02T03:32:14.951Z,6.90
2019-05-02T03:34:47.470Z,6.90
2019-05-02T03:37:13.917Z,6.91
2019-05-02T03:39:49.317Z,6.92
2019-05-02T03:42:20.353Z,6.93
2019-05-02T03:44:56.237Z,6.93
2019-05-02T03:47:27.798Z,6.95
2019-05-02T03:50:00.038Z,6.95
2019-05-02T03:52:36.553Z,6.95
2019-05-02T03:55:06.184Z,6.96
2019-05-02T03:57:41.891Z,6.98
2019-05-02T04:00:20.205Z,7.02
2019-05-02T04:02:46.429Z,7.04
2019-05-02T04:05:18.785Z,7.05
2019-05-02T04:07:50.999Z,7.04
2019-05-02T04:10:23.224Z,7.03
2019-05-02T04:12:58.365Z,7.04
2019-05-02T04:15:35.092Z,7.04
2019-05-02T04:18:08.347Z,7.04
2019-05-02T04:20:37.456Z,7.05
2019-05-02T04:23:09.722Z,7.08
2019-05-02T04:25:41.950Z,7.13
2019-05-02T04:28:14.458Z,7.20
2019-05-02T04:30:51.155Z,7.28
2019-05-02T04:33:20.887Z,7.36
2019-05-02T04:35:58.868Z,7.47
2019-05-02T04:38:39.263Z,7.59
2019-05-02T04:41:04.227Z,7.72
2019-05-02T04:43:43.100Z,7.84
2019-05-02T04:46:18.021Z,7.95
2019-05-02T04:48:48.924Z,8.03
2019-05-02T04:51:20.900Z,8.14
2019-05-02T04:53:53.167Z,8.25
2019-05-02T04:56:28.220Z,8.34
2019-05-02T04:59:01.977Z,8.43
2019-05-02T05:01:43.475Z,8.53
2019-05-02T05:04:08.296Z,8.65
2019-05-02T05:06:52.510Z,8.76
2019-05-02T05:09:18.080Z,8.91
2019-05-02T05:11:53.914Z,9.07
2019-05-02T05:14:25.025Z,9.25
2019-05-02T05:16:57.993Z,9.43
2019-05-02T05:19:32.784Z,9.59
2019-05-02T05:22:06.297Z,9.72
2019-05-02T05:24:42.180Z,9.83
2019-05-02T05:27:13.351Z,9.95
2019-05-02T05:29:48.643Z,10.06
2019-05-02T05:32:20.674Z,10.14
2019-05-02T05:34:52.963Z,10.19
2019-05-02T05:37:27.315Z,10.23
2019-05-02T05:40:00.429Z,10.26
2019-05-02T05:42:33.481Z,10.29
2019-05-02T05:45:09.670Z,10.29
2019-05-02T05:47:40.203Z,10.26
2019-05-02T05:50:12.557Z,10.23
2019-05-02T05:52:44.785Z,10.16
2019-05-02T05:55:20.533Z,10.10
2019-05-02T05:57:59.935Z,10.05
2019-05-02T06:00:25.131Z,9.98
2019-05-02T06:03:10.289Z,9.93
2019-05-02T06:05:33.138Z,9.86
2019-05-02T06:08:05.598Z,9.80
2019-05-02T06:10:39.034Z,9.78
2019-05-02T06:13:12.982Z,9.75
2019-05-02T06:15:46.051Z,9.76
2019-05-02T06:18:18.381Z,9.78
2019-05-02T06:20:50.651Z,9.79
2019-05-02T06:23:22.885Z,9.87
2019-05-02T06:25:55.116Z,9.97
2019-05-02T06:28:27.475Z,10.16
2019-05-02T06:31:02.161Z,10.31
2019-05-02T06:33:34.362Z,10.48
2019-05-02T06:36:06.612Z,10.58
2019-05-02T06:38:38.868Z,10.67
2019-05-02T06:41:11.114Z,10.74
2019-05-02T06:43:46.505Z,10.82
2019-05-02T06:46:21.958Z,10.89
2019-05-02T06:48:52.502Z,11.01
2019-05-02T06:51:25.872Z,11.15
2019-05-02T06:53:58.133Z,11.24
2019-05-02T06:56:30.426Z,11.33
2019-05-02T06:59:04.775Z,11.42
2019-05-02T07:01:38.172Z,11.54
2019-05-02T07:04:10.489Z,11.67
2019-05-02T07:06:57.576Z,11.82
2019-05-02T07:09:17.090Z,11.93
2019-05-02T07:11:56.966Z,12.00
2019-05-02T07:14:25.469Z,12.07
2019-05-02T07:16:57.680Z,12.20
2019-05-02T07:19:32.169Z,12.31
2019-05-02T07:22:04.649Z,12.44
2019-05-02T07:24:37.081Z,12.59
2019-05-02T07:27:09.482Z,12.76
2019-05-02T07:29:41.839Z,12.86
2019-05-02T07:32:14.153Z,12.97
2019-05-02T07:34:48.148Z,13.05
2019-05-02T07:37:20.443Z,13.11
2019-05-02T07:39:53.082Z,13.26
2019-05-02T07:42:25.438Z,13.42
2019-05-02T07:44:57.915Z,13.60
2019-05-02T07:47:34.548Z,13.72
2019-05-02T07:50:05.411Z,13.86
2019-05-02T07:52:41.087Z,13.94
2019-05-02T07:55:13.039Z,14.17
2019-05-02T07:57:45.524Z,14.42
2019-05-02T08:00:17.986Z,14.60
2019-05-02T08:02:50.298Z,14.66
2019-05-02T08:05:23.905Z,14.58
2019-05-02T08:07:56.828Z,14.44
2019-05-02T08:10:29.108Z,14.40
2019-05-02T08:13:01.364Z,14.33
2019-05-02T08:15:33.664Z,14.57
2019-05-02T08:18:05.984Z,14.80
2019-05-02T08:20:38.244Z,15.11
2019-05-02T08:23:13.431Z,15.51
2019-05-02T08:25:46.563Z,15.94
2019-05-02T08:28:19.057Z,16.27
2019-05-02T08:30:51.289Z,16.61
2019-05-02T08:33:29.508Z,16.54
2019-05-02T08:35:59.677Z,16.58
2019-05-02T08:38:32.712Z,16.50
2019-05-02T08:41:05.160Z,16.56
2019-05-02T08:43:40.266Z,16.84
2019-05-02T08:46:14.466Z,17.20
2019-05-02T08:48:50.560Z,17.56
2019-05-02T08:51:21.778Z,17.27
2019-05-02T08:53:56.723Z,16.75
2019-05-02T08:56:28.315Z,16.35
2019-05-02T08:59:00.660Z,16.03
2019-05-02T09:01:35.236Z,15.97
2019-05-02T09:04:06.953Z,15.90
2019-05-02T09:06:39.280Z,16.17
2019-05-02T09:09:11.534Z,16.26
2019-05-02T09:11:48.782Z,16.07
2019-05-02T09:14:17.897Z,16.04
2019-05-02T09:16:52.227Z,16.00
2019-05-02T09:19:26.482Z,15.89
2019-05-02T09:21:58.432Z,15.80
2019-05-02T09:24:32.580Z,15.68
2019-05-02T09:27:04.753Z,15.70
2019-05-02T09:29:37.307Z,15.63
2019-05-02T09:32:12.535Z,15.67
2019-05-02T09:34:45.094Z,15.70
2019-05-02T09:37:17.523Z,15.66
2019-05-02T09:39:49.859Z,15.49
2019-05-02T09:42:22.162Z,15.22
2019-05-02T09:44:56.884Z,15.13
2019-05-02T09:47:35.243Z,15.09
2019-05-02T09:50:02.873Z,14.95
2019-05-02T09:52:39.660Z,14.93
2019-05-02T09:55:12.146Z,14.85
2019-05-02T09:57:44.592Z,14.83
2019-05-02T10:00:16.883Z,14.75
2019-05-02T10:02:49.165Z,14.72
2019-05-02T10:05:23.029Z,14.63
2019-05-02T10:08:03.082Z,14.49
2019-05-02T10:10:32.363Z,14.38
2019-05-02T10:13:04.964Z,14.30
2019-05-02T10:15:37.213Z,14.30
2019-05-02T10:18:12.026Z,14.41
2019-05-02T10:20:43.900Z,14.52
2019-05-02T10:23:19.499Z,14.46
2019-05-02T10:25:52.095Z,14.49
2019-05-02T10:28:24.490Z,14.46
2019-05-02T10:30:56.954Z,14.42
2019-05-02T10:33:33.564Z,14.35
2019-05-02T10:36:03.181Z,14.34
2019-05-02T10:38:35.480Z,14.41
2019-05-02T10:41:07.737Z,14.50
2019-05-02T10:43:39.944Z,14.57
2019-05-02T10:46:14.099Z,14.58
2019-05-02T10:48:46.565Z,14.62
2019-05-02T10:51:19.017Z,14.33
2019-05-02T10:53:52.675Z,14.09
2019-05-02T10:56:25.408Z,13.93
2019-05-02T10:58:57.541Z,13.73
2019-05-02T11:01:29.857Z,13.42
2019-05-02T11:04:02.198Z,13.11
2019-05-02T11:06:37.241Z,13.07
2019-05-02T11:09:08.532Z,12.88
2019-05-02T11:11:42.530Z,12.66
2019-05-02T11:14:15.200Z,12.55
2019-05-02T11:16:47.524Z,12.57
2019-05-02T11:19:21.385Z,12.66
2019-05-02T11:21:58.842Z,12.60
2019-05-02T11:24:27.697Z,12.51
2019-05-02T11:27:02.096Z,12.51
2019-05-02T11:29:34.241Z,12.67
2019-05-02T11:32:06.364Z,12.76
2019-05-02T11:34:38.720Z,12.78
2019-05-02T11:37:12.160Z,12.93
2019-05-02T11:39:50.297Z,12.90
2019-05-02T11:42:23.237Z,12.85
2019-05-02T11:44:52.690Z,12.74
2019-05-02T11:47:26.603Z,12.83
2019-05-02T11:49:59.258Z,13.03
2019-05-02T11:52:32.979Z,13.19
2019-05-02T11:55:05.547Z,13.14
2019-05-02T11:57:37.944Z,12.95
2019-05-02T12:00:12.238Z,12.66
2019-05-02T12:02:44.147Z,12.47
2019-05-02T12:05:16.390Z,12.42
2019-05-02T12:07:48.669Z,12.39
2019-05-02T12:10:21.629Z,12.36
2019-05-02T12:12:54.003Z,12.31
2019-05-02T12:15:26.271Z,12.31
2019-05-02T12:17:58.566Z,12.12
2019-05-02T12:20:35.278Z,12.05
2019-05-02T12:23:04.804Z,12.17
2019-05-02T12:25:37.076Z,12.25
2019-05-02T12:28:09.359Z,12.41
2019-05-02T12:30:42.179Z,12.55
2019-05-02T12:33:14.514Z,12.58
2019-05-02T12:35:46.832Z,12.70
2019-05-02T12:38:19.050Z,12.94
2019-05-02T12:40:52.249Z,13.03
2019-05-02T12:43:24.815Z,13.20
2019-05-02T12:45:57.140Z,13.28
2019-05-02T12:48:29.672Z,13.34
2019-05-02T12:51:03.148Z,13.35
2019-05-02T12:53:35.534Z,13.51
2019-05-02T12:56:07.960Z,13.63
2019-05-02T12:58:42.119Z,13.83
2019-05-02T13:01:15.165Z,13.71
2019-05-02T13:03:49.446Z,13.74
2019-05-02T13:06:22.324Z,14.07
2019-05-02T13:08:54.636Z,14.44
2019-05-02T13:11:27.145Z,14.60
2019-05-02T13:14:02.199Z,14.64
2019-05-02T13:16:34.486Z,14.52
2019-05-02T13:19:06.767Z,14.45
2019-05-02T13:21:42.521Z,14.55
2019-05-02T13:24:16.425Z,14.39
2019-05-02T13:26:52.045Z,14.22
2019-05-02T13:29:22.656Z,14.15
2019-05-02T13:31:54.984Z,14.20
2019-05-02T13:34:27.480Z,14.25
2019-05-02T13:36:59.778Z,14.21
2019-05-02T13:39:32.634Z,14.75
2019-05-02T13:42:05.237Z,14.73
2019-05-02T13:44:37.464Z,15.02
2019-05-02T13:47:12.242Z,15.24
2019-05-02T13:49:53.807Z,15.42
2019-05-02T13:52:20.139Z,15.06
2019-05-02T13:54:52.398Z,14.80
2019-05-02T13:57:24.601Z,14.93
2019-05-02T13:59:57.267Z,14.88
2019-05-02T14:02:31.640Z,14.85
2019-05-02T14:05:03.547Z,14.66
2019-05-02T14:07:36.836Z,14.43
2019-05-02T14:10:11.874Z,14.59
2019-05-02T14:12:44.233Z,14.59
2019-05-02T14:15:16.616Z,14.50
2019-05-02T14:17:49.235Z,14.78
2019-05-02T14:20:22.399Z,15.15
2019-05-02T14:22:54.928Z,15.18
2019-05-02T14:25:27.337Z,15.47
2019-05-02T14:27:59.588Z,15.65
2019-05-02T14:30:39.903Z,15.78
2019-05-02T14:33:05.780Z,15.77
2019-05-02T14:35:37.991Z,15.47
2019-05-02T14:38:10.285Z,15.15
2019-05-02T14:40:42.574Z,15.58
2019-05-02T14:43:14.814Z,15.84
2019-05-02T14:45:50.916Z,15.31
2019-05-02T14:48:22.231Z,14.97
2019-05-02T14:50:54.903Z,14.74
2019-05-02T14:53:27.435Z,14.86
2019-05-02T14:56:04.391Z,14.97
2019-05-02T14:58:37.748Z,15.00
2019-05-02T15:01:08.949Z,15.12
2019-05-02T15:03:42.347Z,15.32
2019-05-02T15:06:14.659Z,15.42
2019-05-02T15:08:49.018Z,15.39
2019-05-02T15:11:30.347Z,15.72
2019-05-02T15:13:55.242Z,15.55
2019-05-02T15:16:39.556Z,15.56
2019-05-02T15:19:02.160Z,15.57
2019-05-02T15:21:34.508Z,15.66
2019-05-02T15:24:06.777Z,15.60
2019-05-02T15:26:39.012Z,15.42
2019-05-02T15:29:18.826Z,15.68
2019-05-02T15:31:45.396Z,15.95
2019-05-02T15:34:17.619Z,15.74
2019-05-02T15:36:49.863Z,15.57
2019-05-02T15:41:56.071Z,15.13
2019-05-02T15:44:28.306Z,15.30
2019-05-02T15:47:05.168Z,15.25
2019-05-02T15:49:36.701Z,15.18
2019-05-02T15:52:08.524Z,15.20
2019-05-02T15:54:42.524Z,15.09
2019-05-02T15:57:18.948Z,15.38
2019-05-02T15:59:49.249Z,15.05
2019-05-02T16:02:22.899Z,15.06
2019-05-02T16:04:57.014Z,15.69
2019-05-02T16:07:29.528Z,16.21
2019-05-02T16:10:03.852Z,16.11
2019-05-02T16:12:36.200Z,15.93
2019-05-02T16:15:13.424Z,15.42
2019-05-02T16:17:42.522Z,15.11
2019-05-02T16:20:16.154Z,14.90
2019-05-02T16:22:49.945Z,15.31
2019-05-02T16:25:24.525Z,15.42
2019-05-02T16:28:02.102Z,15.12
2019-05-02T16:30:31.917Z,14.84
2019-05-02T16:33:08.552Z,14.87
2019-05-02T16:35:38.689Z,15.13
2019-05-02T16:38:12.297Z,15.30
2019-05-02T16:40:46.702Z,15.16
2019-05-02T16:43:18.994Z,15.12
2019-05-02T16:45:52.613Z,15.02
2019-05-02T16:48:24.960Z,14.97
2019-05-02T16:50:57.239Z,14.94
2019-05-02T16:53:31.034Z,15.21
2019-05-02T16:56:07.050Z,15.71
2019-05-02T16:58:37.995Z,16.64
2019-05-02T17:01:14.899Z,16.74
2019-05-02T17:03:46.177Z,16.36
2019-05-02T17:06:22.399Z,15.58
2019-05-02T17:08:57.205Z,14.71
2019-05-02T17:11:27.760Z,14.36
2019-05-02T17:14:02.321Z,14.26
2019-05-02T17:16:34.552Z,13.89
2019-05-02T17:19:08.443Z,14.01
2019-05-02T17:21:53.180Z,14.16
2019-05-02T17:24:17.434Z,15.35
2019-05-02T17:26:48.850Z,17.22
2019-05-02T17:29:22.657Z,16.49
2019-05-02T17:31:59.136Z,15.74
2019-05-02T17:34:30.651Z,15.03
2019-05-02T17:37:04.884Z,14.40
2019-05-02T17:39:42.681Z,13.91
2019-05-02T17:42:17.102Z,13.63
2019-05-02T17:44:47.583Z,13.64
2019-05-02T17:47:19.831Z,13.55
2019-05-02T17:49:52.918Z,13.36
2019-05-02T17:52:26.979Z,13.28
2019-05-02T17:55:01.782Z,13.11
2019-05-02T17:57:34.772Z,12.79
2019-05-02T18:00:07.667Z,12.62
2019-05-02T18:02:42.370Z,12.51
2019-05-02T18:05:14.693Z,12.43
2019-05-02T18:07:47.144Z,12.42
2019-05-02T18:10:23.046Z,12.30
2019-05-02T18:12:58.517Z,12.23
2019-05-02T18:15:29.847Z,12.25
2019-05-02T18:18:06.411Z,12.31
2019-05-02T18:20:42.716Z,12.32
2019-05-02T18:23:12.730Z,12.25
2019-05-02T18:25:45.031Z,12.17
2019-05-02T18:28:24.590Z,12.11
2019-05-02T18:30:52.461Z,12.11
2019-05-02T18:33:24.780Z,12.11
2019-05-02T18:35:56.979Z,12.06
2019-05-02T18:38:29.222Z,11.97
2019-05-02T18:41:06.178Z,11.94
2019-05-02T18:43:40.512Z,11.89
2019-05-02T18:46:09.928Z,11.86
2019-05-02T18:48:46.831Z,11.86
2019-05-02T18:51:18.905Z,11.84
2019-05-02T18:53:52.872Z,11.78
2019-05-02T18:56:24.623Z,11.79
2019-05-02T18:58:56.958Z,11.74
2019-05-02T19:01:29.454Z,11.66
2019-05-02T19:04:02.480Z,11.64
2019-05-02T19:06:36.208Z,11.70
2019-05-02T19:09:08.580Z,11.71
2019-05-02T19:11:42.402Z,11.64
2019-05-02T19:14:16.597Z,11.61
2019-05-02T19:16:51.968Z,11.52
2019-05-02T19:19:27.432Z,11.49
2019-05-02T19:21:57.730Z,11.40
2019-05-02T19:24:34.962Z,11.31
2019-05-02T19:27:03.863Z,11.40
2019-05-02T19:29:36.109Z,11.43
2019-05-02T19:32:08.379Z,11.44
2019-05-02T19:34:41.793Z,11.39
2019-05-02T19:37:14.323Z,11.34
2019-05-02T19:39:48.814Z,11.29
2019-05-02T19:42:22.639Z,11.17
2019-05-02T19:44:54.724Z,11.09
2019-05-02T19:47:27.171Z,11.07
2019-05-02T19:49:59.414Z,11.12
2019-05-02T19:52:38.784Z,11.10
2019-05-02T19:55:05.838Z,11.11
2019-05-02T19:57:41.703Z,11.10
2019-05-02T20:00:13.923Z,10.97
2019-05-02T20:02:46.324Z,10.97
2019-05-02T20:05:24.096Z,10.88
2019-05-02T20:07:52.631Z,10.85
2019-05-02T20:10:26.309Z,10.86
2019-05-02T20:12:58.838Z,10.87
2019-05-02T20:15:32.810Z,10.85
2019-05-02T20:18:05.283Z,10.90
2019-05-02T20:20:40.546Z,10.87
2019-05-02T20:23:17.974Z,10.82
2019-05-02T20:25:46.609Z,10.83
2019-05-02T20:28:18.887Z,10.93
2019-05-02T20:30:52.648Z,10.97
2019-05-02T20:33:25.175Z,10.91
2019-05-02T20:35:57.393Z,10.93
2019-05-02T20:38:29.926Z,10.85
2019-05-02T20:41:02.998Z,10.82
2019-05-02T20:43:35.348Z,10.80
2019-05-02T20:46:07.643Z,10.80
2019-05-02T20:48:41.877Z,10.80
2019-05-02T20:51:14.289Z,10.80
2019-05-02T20:53:46.814Z,10.78
2019-05-02T20:56:20.324Z,10.61
2019-05-02T20:58:52.763Z,10.64
2019-05-02T21:01:25.278Z,10.65
2019-05-02T21:03:57.621Z,10.71
2019-05-02T21:06:40.796Z,10.72
2019-05-02T21:09:05.290Z,10.74
2019-05-02T21:11:37.961Z,10.69
2019-05-02T21:14:12.201Z,10.62
2019-05-02T21:16:44.307Z,10.63
2019-05-02T21:19:16.616Z,10.67
2019-05-02T21:21:48.987Z,10.74
2019-05-02T21:24:22.048Z,10.77
2019-05-02T21:26:54.549Z,10.80
2019-05-02T21:29:26.794Z,10.86
2019-05-02T21:31:59.039Z,10.86
2019-05-02T21:34:31.837Z,10.78
2019-05-02T21:37:05.174Z,10.70
2019-05-02T21:39:37.464Z,10.71
2019-05-02T21:42:09.729Z,10.68
2019-05-02T21:44:42.286Z,10.59
2019-05-02T21:47:14.644Z,10.62
2019-05-02T21:49:47.041Z,10.66
2019-05-02T21:52:19.411Z,10.61
2019-05-02T21:54:52.225Z,10.63
2019-05-02T21:57:24.581Z,10.65
2019-05-02T21:59:56.926Z,10.64
2019-05-02T22:02:29.371Z,10.60
2019-05-02T22:05:03.617Z,10.63
2019-05-02T22:07:36.182Z,10.66
2019-05-02T22:10:08.845Z,10.63
2019-05-02T22:12:42.262Z,10.58
2019-05-02T22:15:14.628Z,10.48
2019-05-02T22:17:47.121Z,10.35
2019-05-02T22:20:19.348Z,10.33
2019-05-02T22:22:52.071Z,10.35
2019-05-02T22:25:24.432Z,10.33
2019-05-02T22:27:56.722Z,10.28
2019-05-02T22:30:29.173Z,10.22
2019-05-02T22:33:02.836Z,10.10
2019-05-02T22:35:35.212Z,10.05
2019-05-02T22:38:07.516Z,9.97
2019-05-02T22:40:41.700Z,9.95
2019-05-02T22:43:13.735Z,9.93
2019-05-02T22:45:45.963Z,9.99
2019-05-02T22:48:18.220Z,10.02
2019-05-02T22:50:52.235Z,10.00
2019-05-02T22:53:24.832Z,10.06
2019-05-02T22:55:57.156Z,10.03
2019-05-02T22:58:29.605Z,10.09
2019-05-02T23:01:01.890Z,10.13
2019-05-02T23:03:35.296Z,10.20
2019-05-02T23:06:07.576Z,10.25
2019-05-02T23:08:43.320Z,10.32
2019-05-02T23:11:13.829Z,10.32
2019-05-02T23:13:46.088Z,10.26
2019-05-02T23:16:18.370Z,10.20
2019-05-02T23:18:52.037Z,10.13
2019-05-02T23:21:24.365Z,10.06
2019-05-02T23:23:56.659Z,9.96
2019-05-02T23:26:28.982Z,9.82
2019-05-02T23:29:02.324Z,9.78
2019-05-02T23:31:34.984Z,9.75
2019-05-02T23:34:07.217Z,9.68
2019-05-02T23:36:41.499Z,9.57
2019-05-02T23:39:13.486Z,9.47
2019-05-02T23:41:45.969Z,9.33
2019-05-02T23:44:18.233Z,9.24
2019-05-02T23:46:51.563Z,9.20
2019-05-02T23:49:23.961Z,9.12
2019-05-02T23:51:56.214Z,9.06
2019-05-02T23:54:28.470Z,8.99
2019-05-02T23:57:00.744Z,8.95
2019-05-02T23:59:32.987Z,8.91
